createdAt,value
2023-02-12T00:01:28.540Z,2.73
2023-02-12T00:03:57.010Z,2.72
2023-02-12T00:06:25.450Z,2.72
2023-02-12T00:08:56.020Z,2.64
2023-02-12T00:11:26.927Z,2.59
2023-02-12T00:13:57.670Z,2.55
2023-02-12T00:16:28.588Z,2.49
2023-02-12T00:18:58.685Z,2.46
2023-02-12T00:21:28.067Z,2.47
2023-02-12T00:23:57.017Z,2.50
2023-02-12T00:26:26.072Z,2.51
2023-02-12T00:28:56.781Z,2.51
2023-02-12T00:31:26.978Z,2.50
2023-02-12T00:33:56.082Z,2.51
2023-02-12T00:36:28.241Z,2.53
2023-02-12T00:38:57.380Z,2.53
2023-02-12T00:41:34.037Z,2.51
2023-02-12T00:44:03.716Z,2.52
2023-02-12T00:46:32.163Z,2.51
2023-02-12T00:49:00.588Z,2.51
2023-02-12T00:51:29.022Z,2.51
2023-02-12T00:53:57.378Z,2.51
2023-02-12T00:56:25.723Z,2.52
2023-02-12T00:58:54.046Z,2.55
2023-02-12T01:01:23.833Z,2.58
2023-02-12T01:03:52.380Z,2.60
2023-02-12T01:06:20.663Z,2.60
2023-02-12T01:08:52.089Z,2.63
2023-02-12T01:11:21.099Z,2.63
2023-02-12T01:13:49.398Z,2.65
2023-02-12T01:16:19.563Z,2.67
2023-02-12T01:18:49.604Z,2.68
2023-02-12T01:21:20.144Z,2.68
2023-02-12T01:23:49.095Z,2.69
2023-02-12T01:26:20.168Z,2.69
2023-02-12T01:28:51.841Z,2.71
2023-02-12T01:31:22.934Z,2.72
2023-02-12T01:33:54.970Z,2.74
2023-02-12T01:36:24.027Z,2.76
2023-02-12T01:38:52.578Z,2.79
2023-02-12T01:41:23.026Z,2.80
2023-02-12T01:44:17.398Z,2.82
2023-02-12T01:46:48.069Z,2.85
2023-02-12T01:49:23.414Z,2.88
2023-02-12T01:51:55.791Z,2.90
2023-02-12T01:54:26.756Z,2.93
2023-02-12T01:56:56.692Z,2.95
2023-02-12T01:59:25.716Z,2.93
2023-02-12T02:01:55.180Z,2.92
2023-02-12T02:04:28.527Z,2.90
2023-02-12T02:06:59.733Z,2.87
2023-02-12T02:09:29.636Z,2.85
2023-02-12T02:12:16.138Z,2.86
2023-02-12T02:14:45.695Z,2.86
2023-02-12T02:17:49.045Z,2.85
2023-02-12T02:20:43.460Z,2.85
2023-02-12T02:23:35.460Z,2.79
2023-02-12T02:26:23.798Z,2.76
2023-02-12T02:29:14.590Z,2.76
2023-02-12T02:31:47.719Z,2.76
2023-02-12T02:34:22.574Z,2.82
2023-02-12T02:37:01.111Z,2.86
2023-02-12T02:39:38.806Z,2.89
2023-02-12T02:42:12.158Z,2.91
2023-02-12T02:44:48.295Z,2.95
2023-02-12T02:47:21.159Z,2.96
2023-02-12T02:49:56.924Z,2.99
2023-02-12T02:52:35.216Z,3.02
2023-02-12T02:55:07.621Z,3.02
2023-02-12T02:57:42.673Z,3.04
2023-02-12T03:00:16.781Z,3.06
2023-02-12T03:02:51.166Z,3.07
2023-02-12T03:05:26.767Z,3.09
2023-02-12T03:08:00.156Z,3.08
2023-02-12T03:10:32.797Z,3.09
2023-02-12T03:13:08.206Z,3.09
2023-02-12T03:15:40.080Z,3.08
2023-02-12T03:18:21.567Z,3.05
2023-02-12T03:20:59.355Z,3.01
2023-02-12T03:23:32.298Z,2.99
2023-02-12T03:26:13.850Z,2.94
2023-02-12T03:28:42.787Z,2.92
2023-02-12T03:31:23.074Z,2.90
2023-02-12T03:34:07.110Z,2.85
2023-02-12T03:36:53.083Z,2.83
2023-02-12T03:39:49.856Z,2.81
2023-02-12T03:42:37.077Z,2.79
2023-02-12T03:45:23.630Z,2.81
2023-02-12T03:48:00.692Z,2.84
2023-02-12T03:50:36.194Z,2.87
2023-02-12T03:53:05.278Z,2.91
2023-02-12T03:55:38.157Z,2.94
2023-02-12T03:58:11.276Z,2.99
2023-02-12T04:00:40.861Z,3.02
2023-02-12T04:03:09.585Z,3.05
2023-02-12T04:05:39.262Z,3.07
2023-02-12T04:08:10.422Z,3.07
2023-02-12T04:10:57.619Z,3.08
2023-02-12T04:13:34.264Z,3.06
2023-02-12T04:16:14.871Z,3.04
2023-02-12T04:18:46.291Z,3.02
2023-02-12T04:21:29.135Z,3.01
2023-02-12T04:24:08.036Z,3.00
2023-02-12T04:26:43.636Z,2.99
2023-02-12T04:29:20.513Z,2.99
2023-02-12T04:31:55.731Z,2.98
2023-02-12T04:34:33.877Z,2.95
2023-02-12T04:37:08.712Z,2.92
2023-02-12T04:39:39.909Z,2.92
2023-02-12T04:42:08.918Z,2.91
2023-02-12T04:44:40.326Z,2.92
2023-02-12T04:47:08.788Z,2.93
2023-02-12T04:49:37.107Z,2.95
2023-02-12T04:52:07.503Z,2.98
2023-02-12T04:54:36.272Z,3.00
2023-02-12T04:57:04.829Z,3.02
2023-02-12T04:59:33.097Z,3.03
2023-02-12T05:02:01.430Z,3.02
2023-02-12T05:04:29.704Z,3.01
2023-02-12T05:06:58.085Z,3.02
2023-02-12T05:09:28.200Z,3.00
2023-02-12T05:11:56.691Z,3.00
2023-02-12T05:14:25.474Z,2.99
2023-02-12T05:16:53.908Z,2.99
2023-02-12T05:19:22.238Z,3.01
2023-02-12T05:21:51.390Z,3.04
2023-02-12T05:24:19.721Z,3.07
2023-02-12T05:26:50.300Z,3.08
2023-02-12T05:29:19.063Z,3.06
2023-02-12T05:31:47.630Z,3.06
2023-02-12T05:34:16.166Z,3.06
2023-02-12T05:36:44.487Z,3.07
2023-02-12T05:39:12.816Z,3.07
2023-02-12T05:41:41.131Z,3.05
2023-02-12T05:44:12.026Z,3.06
2023-02-12T05:46:40.414Z,3.07
2023-02-12T05:49:08.947Z,3.08
2023-02-12T05:51:37.310Z,3.10
2023-02-12T05:54:07.559Z,3.11
2023-02-12T05:56:37.957Z,3.13
2023-02-12T05:59:08.285Z,3.11
2023-02-12T06:01:41.237Z,3.09
2023-02-12T06:04:14.746Z,3.10
2023-02-12T06:06:43.481Z,3.11
2023-02-12T06:09:12.973Z,3.12
2023-02-12T06:11:41.914Z,3.12
2023-02-12T06:14:13.431Z,3.12
2023-02-12T06:16:46.035Z,3.13
2023-02-12T06:19:14.920Z,3.15
2023-02-12T06:21:43.514Z,3.15
2023-02-12T06:24:13.497Z,3.17
2023-02-12T06:26:42.071Z,3.15
2023-02-12T06:29:10.422Z,3.15
2023-02-12T06:31:39.191Z,3.16
2023-02-12T06:34:11.333Z,3.18
2023-02-12T06:36:41.728Z,3.18
2023-02-12T06:39:10.185Z,3.19
2023-02-12T06:41:38.655Z,3.21
2023-02-12T06:44:07.617Z,3.22
2023-02-12T06:46:36.090Z,3.23
2023-02-12T06:49:04.560Z,3.25
2023-02-12T06:51:36.381Z,3.27
2023-02-12T06:54:04.815Z,3.28
2023-02-12T06:56:33.139Z,3.28
2023-02-12T06:59:02.148Z,3.28
2023-02-12T07:01:31.650Z,3.28
2023-02-12T07:04:02.198Z,3.29
2023-02-12T07:06:32.444Z,3.31
2023-02-12T07:09:03.349Z,3.32
2023-02-12T07:11:36.154Z,3.34
2023-02-12T07:14:06.670Z,3.35
2023-02-12T07:16:35.063Z,3.38
2023-02-12T07:19:03.505Z,3.39
2023-02-12T07:21:32.057Z,3.42
2023-02-12T07:24:01.907Z,3.44
2023-02-12T07:26:30.283Z,3.47
2023-02-12T07:28:59.478Z,3.48
2023-02-12T07:31:27.974Z,3.49
2023-02-12T07:33:57.750Z,3.51
2023-02-12T07:36:28.185Z,3.51
2023-02-12T07:38:57.090Z,3.52
2023-02-12T07:41:28.536Z,3.51
2023-02-12T07:43:59.289Z,3.52
2023-02-12T07:46:30.709Z,3.55
2023-02-12T07:49:00.881Z,3.56
2023-02-12T07:51:29.892Z,3.59
2023-02-12T07:53:58.252Z,3.64
2023-02-12T07:56:31.973Z,3.72
2023-02-12T07:59:01.677Z,3.80
2023-02-12T08:01:32.925Z,3.86
2023-02-12T08:04:02.724Z,3.93
2023-02-12T08:06:33.343Z,4.00
2023-02-12T08:09:03.643Z,4.04
2023-02-12T08:11:33.867Z,4.08
2023-02-12T08:14:02.259Z,4.12
2023-02-12T08:16:31.702Z,4.17
2023-02-12T08:19:14.296Z,4.23
2023-02-12T08:21:45.110Z,4.28
2023-02-12T08:24:13.446Z,4.34
2023-02-12T08:26:43.219Z,4.41
2023-02-12T08:29:14.247Z,4.46
2023-02-12T08:31:44.254Z,4.49
2023-02-12T08:34:19.431Z,4.54
2023-02-12T08:36:49.304Z,4.60
2023-02-12T08:39:18.854Z,4.66
2023-02-12T08:41:49.065Z,4.71
2023-02-12T08:44:17.906Z,4.81
2023-02-12T08:46:47.812Z,4.88
2023-02-12T08:49:17.880Z,4.96
2023-02-12T08:51:49.335Z,5.03
2023-02-12T08:54:20.037Z,5.09
2023-02-12T08:56:49.920Z,5.17
2023-02-12T08:59:18.377Z,5.26
2023-02-12T09:01:46.847Z,5.34
2023-02-12T09:04:18.460Z,5.41
2023-02-12T09:06:47.623Z,5.48
2023-02-12T09:09:16.697Z,5.55
2023-02-12T09:11:45.175Z,5.61
2023-02-12T09:14:18.712Z,5.69
2023-02-12T09:16:47.152Z,5.74
2023-02-12T09:19:16.054Z,5.81
2023-02-12T09:21:44.436Z,5.89
2023-02-12T09:24:12.747Z,5.94
2023-02-12T09:26:41.385Z,6.04
2023-02-12T09:29:09.738Z,6.14
2023-02-12T09:31:40.348Z,6.24
2023-02-12T09:34:08.940Z,6.28
2023-02-12T09:36:37.301Z,6.29
2023-02-12T09:39:06.472Z,6.30
2023-02-12T09:42:04.250Z,6.34
2023-02-12T09:44:43.367Z,6.38
2023-02-12T09:47:20.056Z,6.44
2023-02-12T09:50:23.628Z,6.50
2023-02-12T09:52:53.422Z,6.57
2023-02-12T09:55:26.490Z,6.62
2023-02-12T09:57:55.083Z,6.69
2023-02-12T10:00:28.047Z,6.75
2023-02-12T10:03:03.959Z,6.81
2023-02-12T10:05:37.256Z,6.87
2023-02-12T10:08:27.538Z,6.98
2023-02-12T10:11:08.423Z,7.05
2023-02-12T10:13:48.029Z,7.13
2023-02-12T10:16:26.542Z,7.20
2023-02-12T10:19:12.014Z,7.29
2023-02-12T10:21:49.106Z,7.43
2023-02-12T10:24:44.416Z,7.54
2023-02-12T10:27:15.708Z,7.62
2023-02-12T10:29:46.847Z,7.69
2023-02-12T10:32:27.754Z,7.74
2023-02-12T10:34:58.796Z,7.78
2023-02-12T10:37:33.448Z,7.87
2023-02-12T10:40:07.280Z,7.99
2023-02-12T10:42:40.339Z,8.10
2023-02-12T10:45:15.589Z,8.21
2023-02-12T10:47:45.255Z,8.33
2023-02-12T10:50:23.197Z,8.42
2023-02-12T10:52:56.928Z,8.55
2023-02-12T10:55:28.036Z,8.71
2023-02-12T10:57:57.109Z,8.83
2023-02-12T11:00:30.196Z,8.93
2023-02-12T11:03:19.699Z,9.03
2023-02-12T11:05:50.046Z,9.10
2023-02-12T11:08:32.014Z,9.18
2023-02-12T11:11:10.923Z,9.30
2023-02-12T11:13:44.145Z,9.41
2023-02-12T11:16:12.882Z,9.56
2023-02-12T11:18:41.625Z,9.65
2023-02-12T11:21:13.505Z,9.72
2023-02-12T11:23:43.635Z,9.73
2023-02-12T11:26:26.099Z,9.82
2023-02-12T11:28:56.700Z,9.91
2023-02-12T11:31:30.190Z,9.92
2023-02-12T11:34:11.086Z,10.00
2023-02-12T11:36:43.926Z,10.04
2023-02-12T11:39:22.425Z,10.13
2023-02-12T11:41:53.861Z,10.18
2023-02-12T11:44:26.231Z,10.27
2023-02-12T11:46:57.481Z,10.29
2023-02-12T11:49:31.206Z,10.23
2023-02-12T11:52:03.869Z,10.21
2023-02-12T11:54:39.961Z,10.28
2023-02-12T11:57:08.757Z,10.33
2023-02-12T11:59:39.032Z,10.39
2023-02-12T12:02:19.065Z,10.40
2023-02-12T12:04:51.187Z,10.41
2023-02-12T12:07:26.585Z,10.40
2023-02-12T12:10:01.315Z,10.40
2023-02-12T12:12:38.765Z,10.45
2023-02-12T12:15:34.678Z,10.47
2023-02-12T12:18:35.817Z,10.51
2023-02-12T12:21:12.478Z,10.54
2023-02-12T12:23:49.639Z,10.55
2023-02-12T12:26:24.597Z,10.59
2023-02-12T12:28:58.690Z,10.66
2023-02-12T12:31:31.913Z,10.69
2023-02-12T12:34:06.607Z,10.68
2023-02-12T12:37:03.215Z,10.67
2023-02-12T12:39:40.527Z,10.70
2023-02-12T12:42:41.163Z,10.74
2023-02-12T12:45:26.153Z,10.66
2023-02-12T12:48:09.095Z,10.63
2023-02-12T12:50:58.140Z,10.66
2023-02-12T12:53:49.631Z,10.69
2023-02-12T12:56:35.219Z,10.69
2023-02-12T12:59:36.042Z,10.67
2023-02-12T13:02:34.248Z,10.63
2023-02-12T13:05:25.990Z,10.65
2023-02-12T13:08:05.541Z,10.59
2023-02-12T13:10:43.069Z,10.53
2023-02-12T13:13:26.327Z,10.51
2023-02-12T13:16:00.869Z,10.51
2023-02-12T13:18:49.008Z,10.52
2023-02-12T13:21:25.310Z,10.56
2023-02-12T13:23:59.833Z,10.68
2023-02-12T13:26:34.321Z,10.81
2023-02-12T13:29:09.286Z,11.01
2023-02-12T13:31:43.632Z,11.17
2023-02-12T13:34:16.232Z,11.33
2023-02-12T13:36:45.927Z,11.44
2023-02-12T13:39:23.728Z,11.56
2023-02-12T13:42:10.023Z,11.70
2023-02-12T13:44:48.185Z,11.80
2023-02-12T13:47:27.642Z,11.89
2023-02-12T13:50:01.603Z,12.00
2023-02-12T13:52:38.498Z,12.13
2023-02-12T13:55:24.007Z,12.24
2023-02-12T13:58:28.615Z,12.33
2023-02-12T14:01:03.054Z,12.36
2023-02-12T14:03:33.053Z,12.34
2023-02-12T14:06:16.808Z,12.31
2023-02-12T14:08:47.968Z,12.28
2023-02-12T14:11:19.261Z,12.25
2023-02-12T14:13:53.523Z,12.24
2023-02-12T14:16:40.670Z,12.24
2023-02-12T14:19:46.183Z,12.29
2023-02-12T14:22:36.066Z,12.30
2023-02-12T14:25:31.214Z,12.27
2023-02-12T14:28:07.454Z,12.22
2023-02-12T14:30:39.118Z,12.22
2023-02-12T14:33:25.412Z,12.32
2023-02-12T14:36:19.999Z,12.51
2023-02-12T14:39:00.606Z,12.71
2023-02-12T14:41:37.737Z,12.83
2023-02-12T14:44:43.009Z,12.90
2023-02-12T14:47:37.128Z,12.95
2023-02-12T14:50:14.231Z,13.03
2023-02-12T14:52:48.876Z,13.04
2023-02-12T14:55:23.356Z,13.04
2023-02-12T14:57:59.465Z,13.02
2023-02-12T15:00:32.212Z,13.01
2023-02-12T15:03:06.629Z,12.95
2023-02-12T15:05:40.631Z,12.87
2023-02-12T15:08:16.896Z,12.70
2023-02-12T15:10:50.776Z,12.45
2023-02-12T15:13:30.125Z,12.20
2023-02-12T15:16:05.459Z,12.01
2023-02-12T15:18:46.944Z,11.84
2023-02-12T15:21:21.012Z,11.70
2023-02-12T15:23:59.070Z,11.58
2023-02-12T15:26:28.980Z,11.48
2023-02-12T15:28:58.902Z,11.36
2023-02-12T15:31:30.098Z,11.26
2023-02-12T15:34:01.205Z,11.15
2023-02-12T15:36:33.049Z,11.09
2023-02-12T15:39:04.184Z,11.02
2023-02-12T15:41:41.927Z,10.91
2023-02-12T15:44:25.099Z,10.80
2023-02-12T15:47:12.113Z,10.71
2023-02-12T15:49:42.000Z,10.60
2023-02-12T15:52:17.918Z,10.50
2023-02-12T15:54:48.354Z,10.38
2023-02-12T15:57:23.110Z,10.30
2023-02-12T15:59:54.895Z,10.18
2023-02-12T16:02:27.455Z,10.07
2023-02-12T16:04:56.880Z,9.93
2023-02-12T16:07:26.838Z,9.78
2023-02-12T16:09:55.605Z,9.65
2023-02-12T16:12:30.001Z,9.54
2023-02-12T16:15:01.013Z,9.46
2023-02-12T16:17:32.240Z,9.38
2023-02-12T16:20:02.520Z,9.33
2023-02-12T16:22:35.093Z,9.23
2023-02-12T16:25:05.934Z,9.14
2023-02-12T16:27:35.596Z,9.00
2023-02-12T16:30:10.750Z,8.89
2023-02-12T16:32:42.025Z,8.80
2023-02-12T16:35:26.975Z,8.70
2023-02-12T16:38:13.468Z,8.60
2023-02-12T16:40:43.270Z,8.49
2023-02-12T16:43:27.476Z,8.41
2023-02-12T16:46:08.031Z,8.34
2023-02-12T16:48:42.686Z,8.29
2023-02-12T16:51:28.118Z,8.23
2023-02-12T16:53:58.554Z,8.18
2023-02-12T16:56:29.109Z,8.13
2023-02-12T16:58:59.700Z,8.09
2023-02-12T17:01:32.171Z,8.02
2023-02-12T17:04:02.572Z,7.97
2023-02-12T17:06:32.548Z,7.92
2023-02-12T17:09:01.186Z,7.88
2023-02-12T17:11:30.082Z,7.83
2023-02-12T17:13:58.747Z,7.79
2023-02-12T17:16:31.765Z,7.73
2023-02-12T17:19:02.708Z,7.67
2023-02-12T17:21:38.057Z,7.61
2023-02-12T17:24:07.831Z,7.56
2023-02-12T17:26:36.903Z,7.50
2023-02-12T17:29:06.398Z,7.46
2023-02-12T17:31:36.695Z,7.39
2023-02-12T17:34:06.828Z,7.30
2023-02-12T17:36:35.467Z,7.21
2023-02-12T17:39:06.134Z,7.17
2023-02-12T17:41:35.543Z,7.12
2023-02-12T17:44:04.351Z,7.07
2023-02-12T17:46:32.774Z,7.03
2023-02-12T17:49:01.306Z,7.02
2023-02-12T17:51:31.110Z,6.95
2023-02-12T17:54:00.820Z,6.91
2023-02-12T17:56:29.357Z,6.87
2023-02-12T17:58:57.714Z,6.83
2023-02-12T18:01:26.378Z,6.79
2023-02-12T18:03:57.007Z,6.75
2023-02-12T18:06:27.189Z,6.68
2023-02-12T18:08:57.771Z,6.62
2023-02-12T18:11:27.719Z,6.58
2023-02-12T18:13:57.125Z,6.52
2023-02-12T18:16:27.214Z,6.47
2023-02-12T18:18:57.141Z,6.43
2023-02-12T18:21:25.552Z,6.41
2023-02-12T18:23:55.887Z,6.36
2023-02-12T18:26:25.571Z,6.30
2023-02-12T18:28:58.366Z,6.27
2023-02-12T18:31:28.680Z,6.24
2023-02-12T18:33:59.035Z,6.20
2023-02-12T18:36:27.552Z,6.18
2023-02-12T18:39:01.073Z,6.15
2023-02-12T18:41:31.624Z,6.10
2023-02-12T18:44:00.687Z,6.08
2023-02-12T18:46:30.935Z,6.06
2023-02-12T18:49:00.205Z,6.00
2023-02-12T18:51:32.633Z,5.99
2023-02-12T18:54:06.422Z,5.98
2023-02-12T18:56:40.040Z,5.96
2023-02-12T18:59:09.329Z,5.96
2023-02-12T19:01:37.976Z,5.94
2023-02-12T19:04:09.257Z,5.90
2023-02-12T19:06:41.453Z,5.91
2023-02-12T19:09:16.346Z,5.89
2023-02-12T19:11:46.597Z,5.86
2023-02-12T19:14:15.413Z,5.83
2023-02-12T19:16:45.638Z,5.79
2023-02-12T19:19:15.210Z,5.76
2023-02-12T19:21:43.980Z,5.76
2023-02-12T19:24:15.995Z,5.71
2023-02-12T19:26:45.449Z,5.71
2023-02-12T19:29:14.617Z,5.68
2023-02-12T19:31:46.424Z,5.68
2023-02-12T19:34:19.424Z,5.66
2023-02-12T19:36:49.506Z,5.64
2023-02-12T19:39:21.645Z,5.63
2023-02-12T19:41:50.620Z,5.60
2023-02-12T19:44:20.893Z,5.58
2023-02-12T19:46:50.286Z,5.55
2023-02-12T19:49:21.041Z,5.54
2023-02-12T19:51:50.153Z,5.54
2023-02-12T19:54:21.565Z,5.57
2023-02-12T19:56:50.758Z,5.58
2023-02-12T19:59:22.040Z,5.58
2023-02-12T20:01:51.403Z,5.58
2023-02-12T20:04:21.687Z,5.59
2023-02-12T20:06:50.941Z,5.60
2023-02-12T20:09:22.397Z,5.60
2023-02-12T20:11:51.098Z,5.61
2023-02-12T20:14:20.901Z,5.60
2023-02-12T20:16:50.270Z,5.59
2023-02-12T20:19:21.200Z,5.56
2023-02-12T20:21:54.287Z,5.54
2023-02-12T20:24:26.826Z,5.54
2023-02-12T20:26:55.900Z,5.54
2023-02-12T20:29:25.327Z,5.55
2023-02-12T20:31:54.761Z,5.54
2023-02-12T20:34:23.332Z,5.45
2023-02-12T20:36:51.736Z,5.36
2023-02-12T20:39:21.684Z,5.19
2023-02-12T20:41:51.543Z,5.05
2023-02-12T20:44:21.944Z,4.98
2023-02-12T20:46:55.846Z,4.89
2023-02-12T20:49:26.150Z,4.88
2023-02-12T20:51:54.696Z,4.87
2023-02-12T20:54:23.134Z,4.90
2023-02-12T20:56:52.921Z,4.90
2023-02-12T20:59:21.365Z,4.93
2023-02-12T21:01:50.129Z,4.93
2023-02-12T21:04:20.218Z,4.95
2023-02-12T21:06:49.417Z,4.99
2023-02-12T21:09:18.799Z,5.04
2023-02-12T21:11:47.695Z,5.07
2023-02-12T21:14:22.243Z,5.11
2023-02-12T21:16:52.225Z,5.15
2023-02-12T21:19:20.999Z,5.16
2023-02-12T21:21:51.990Z,5.13
2023-02-12T21:24:22.468Z,5.11
2023-02-12T21:26:51.344Z,5.09
2023-02-12T21:29:21.940Z,5.09
2023-02-12T21:31:51.914Z,5.06
2023-02-12T21:34:22.834Z,5.06
2023-02-12T21:36:54.162Z,5.08
2023-02-12T21:39:26.214Z,5.09
2023-02-12T21:41:56.918Z,5.10
2023-02-12T21:44:27.400Z,5.09
2023-02-12T21:46:56.608Z,5.08
2023-02-12T21:49:35.173Z,5.11
2023-02-12T21:52:06.601Z,5.14
2023-02-12T21:54:35.286Z,5.12
2023-02-12T21:57:03.673Z,5.08
2023-02-12T21:59:33.449Z,5.04
2023-02-12T22:02:02.177Z,5.04
2023-02-12T22:04:30.868Z,5.08
2023-02-12T22:07:02.991Z,5.05
2023-02-12T22:09:31.766Z,5.03
2023-02-12T22:12:00.167Z,5.03
2023-02-12T22:14:28.565Z,5.07
2023-02-12T22:16:58.251Z,5.11
2023-02-12T22:19:26.624Z,5.12
2023-02-12T22:21:54.985Z,5.15
2023-02-12T22:24:23.540Z,5.13
2023-02-12T22:26:52.011Z,5.15
2023-02-12T22:29:22.839Z,5.17
2023-02-12T22:31:51.692Z,5.15
2023-02-12T22:34:21.511Z,5.08
2023-02-12T22:36:49.913Z,5.03
2023-02-12T22:39:18.622Z,5.06
2023-02-12T22:41:47.210Z,4.98
2023-02-12T22:44:16.572Z,4.91
2023-02-12T22:46:45.411Z,4.91
2023-02-12T22:49:13.864Z,4.92
2023-02-12T22:51:47.627Z,4.88
2023-02-12T22:54:17.694Z,4.87
2023-02-12T22:56:47.349Z,4.85
2023-02-12T22:59:15.780Z,4.88
2023-02-12T23:01:44.678Z,4.83
2023-02-12T23:04:16.607Z,4.78
2023-02-12T23:06:49.397Z,4.70
2023-02-12T23:09:19.111Z,4.71
2023-02-12T23:11:48.426Z,4.71
2023-02-12T23:14:17.505Z,4.71
2023-02-12T23:16:45.994Z,4.74
2023-02-12T23:19:15.142Z,4.79
2023-02-12T23:21:43.902Z,4.84
2023-02-12T23:24:16.104Z,4.92
2023-02-12T23:26:45.192Z,4.95
2023-02-12T23:29:13.913Z,4.97
2023-02-12T23:31:42.434Z,4.98
2023-02-12T23:34:11.019Z,5.01
2023-02-12T23:36:39.401Z,5.03
2023-02-12T23:39:09.474Z,4.98
2023-02-12T23:41:39.371Z,4.98
2023-02-12T23:44:07.817Z,4.96
2023-02-12T23:46:36.278Z,4.87
2023-02-12T23:49:04.758Z,4.82
2023-02-12T23:51:33.729Z,4.77
2023-02-12T23:54:02.194Z,4.73
2023-02-12T23:56:30.627Z,4.76
2023-02-12T23:59:00.391Z,4.72
